sensor_id;sensor_type;location;lat;lon;timestamp;P1;durP1;ratioP1;P2;durP2;ratioP2
33268;SDS011;19640;50.944;5.260;2023-07-31T00:00:40;8.23;;;3.22;;
33268;SDS011;19640;50.944;5.260;2023-07-31T00:03:06;8.35;;;2.80;;
33268;SDS011;19640;50.944;5.260;2023-07-31T00:05:32;7.88;;;3.00;;
33268;SDS011;19640;50.944;5.260;2023-07-31T00:07:59;7.60;;;3.00;;
33268;SDS011;19640;50.944;5.260;2023-07-31T00:10:25;10.55;;;2.65;;
33268;SDS011;19640;50.944;5.260;2023-07-31T00:12:50;8.80;;;3.10;;
33268;SDS011;19640;50.944;5.260;2023-07-31T00:15:16;6.65;;;2.90;;
33268;SDS011;19640;50.944;5.260;2023-07-31T00:17:42;8.82;;;3.22;;
33268;SDS011;19640;50.944;5.260;2023-07-31T00:20:07;8.63;;;3.75;;
33268;SDS011;19640;50.944;5.260;2023-07-31T00:22:33;9.25;;;3.83;;
33268;SDS011;19640;50.944;5.260;2023-07-31T00:25:01;9.45;;;3.20;;
33268;SDS011;19640;50.944;5.260;2023-07-31T00:27:27;9.27;;;3.35;;
33268;SDS011;19640;50.944;5.260;2023-07-31T00:29:52;13.75;;;3.65;;
33268;SDS011;19640;50.944;5.260;2023-07-31T00:32:18;7.38;;;3.10;;
33268;SDS011;19640;50.944;5.260;2023-07-31T00:34:43;11.10;;;3.28;;
33268;SDS011;19640;50.944;5.260;2023-07-31T00:37:09;11.52;;;3.40;;
33268;SDS011;19640;50.944;5.260;2023-07-31T00:39:35;8.60;;;3.47;;
33268;SDS011;19640;50.944;5.260;2023-07-31T00:42:01;8.90;;;3.20;;
33268;SDS011;19640;50.944;5.260;2023-07-31T00:44:29;9.63;;;3.13;;
33268;SDS011;19640;50.944;5.260;2023-07-31T00:46:54;14.40;;;3.60;;
33268;SDS011;19640;50.944;5.260;2023-07-31T00:49:22;11.65;;;3.28;;
33268;SDS011;19640;50.944;5.260;2023-07-31T00:51:48;9.40;;;3.40;;
33268;SDS011;19640;50.944;5.260;2023-07-31T00:54:14;9.07;;;3.25;;
33268;SDS011;19640;50.944;5.260;2023-07-31T00:56:39;11.48;;;3.35;;
33268;SDS011;19640;50.944;5.260;2023-07-31T00:59:07;9.85;;;3.13;;
33268;SDS011;19640;50.944;5.260;2023-07-31T01:01:33;14.05;;;3.20;;
33268;SDS011;19640;50.944;5.260;2023-07-31T01:03:58;7.55;;;3.00;;
33268;SDS011;19640;50.944;5.260;2023-07-31T01:06:33;8.10;;;3.20;;
33268;SDS011;19640;50.944;5.260;2023-07-31T01:09:18;7.70;;;2.88;;
33268;SDS011;19640;50.944;5.260;2023-07-31T01:12:01;11.75;;;4.07;;
33268;SDS011;19640;50.944;5.260;2023-07-31T01:14:29;7.65;;;3.53;;
33268;SDS011;19640;50.944;5.260;2023-07-31T01:16:57;7.72;;;3.22;;
33268;SDS011;19640;50.944;5.260;2023-07-31T01:19:23;8.40;;;3.38;;
33268;SDS011;19640;50.944;5.260;2023-07-31T01:24:22;11.05;;;3.00;;
33268;SDS011;19640;50.944;5.260;2023-07-31T01:26:56;9.68;;;2.90;;
33268;SDS011;19640;50.944;5.260;2023-07-31T01:29:30;7.88;;;2.90;;
33268;SDS011;19640;50.944;5.260;2023-07-31T01:32:08;6.47;;;4.00;;
33268;SDS011;19640;50.944;5.260;2023-07-31T01:34:35;6.80;;;3.45;;
33268;SDS011;19640;50.944;5.260;2023-07-31T01:37:02;9.18;;;3.33;;
33268;SDS011;19640;50.944;5.260;2023-07-31T01:39:28;7.03;;;3.13;;
33268;SDS011;19640;50.944;5.260;2023-07-31T01:41:53;8.02;;;3.05;;
33268;SDS011;19640;50.944;5.260;2023-07-31T01:44:19;6.05;;;3.22;;
33268;SDS011;19640;50.944;5.260;2023-07-31T01:46:45;6.38;;;2.97;;
33268;SDS011;19640;50.944;5.260;2023-07-31T01:49:11;11.52;;;3.72;;
33268;SDS011;19640;50.944;5.260;2023-07-31T01:51:36;7.38;;;3.22;;
33268;SDS011;19640;50.944;5.260;2023-07-31T01:54:02;14.13;;;4.03;;
33268;SDS011;19640;50.944;5.260;2023-07-31T01:56:28;14.82;;;3.72;;
33268;SDS011;19640;50.944;5.260;2023-07-31T01:58:53;8.63;;;3.42;;
33268;SDS011;19640;50.944;5.260;2023-07-31T02:01:20;7.15;;;3.15;;
33268;SDS011;19640;50.944;5.260;2023-07-31T02:03:46;8.88;;;3.53;;
33268;SDS011;19640;50.944;5.260;2023-07-31T02:06:11;9.18;;;3.50;;
33268;SDS011;19640;50.944;5.260;2023-07-31T02:08:37;9.20;;;3.33;;
33268;SDS011;19640;50.944;5.260;2023-07-31T02:11:03;7.20;;;3.88;;
33268;SDS011;19640;50.944;5.260;2023-07-31T02:13:29;11.73;;;3.25;;
33268;SDS011;19640;50.944;5.260;2023-07-31T02:15:54;10.52;;;3.08;;
33268;SDS011;19640;50.944;5.260;2023-07-31T02:18:20;9.20;;;3.25;;
33268;SDS011;19640;50.944;5.260;2023-07-31T02:20:50;6.35;;;3.00;;
33268;SDS011;19640;50.944;5.260;2023-07-31T02:23:16;10.70;;;3.47;;
33268;SDS011;19640;50.944;5.260;2023-07-31T02:25:45;5.57;;;2.78;;
33268;SDS011;19640;50.944;5.260;2023-07-31T02:28:11;9.10;;;3.28;;
33268;SDS011;19640;50.944;5.260;2023-07-31T02:30:37;7.55;;;3.53;;
33268;SDS011;19640;50.944;5.260;2023-07-31T02:33:03;8.93;;;3.45;;
33268;SDS011;19640;50.944;5.260;2023-07-31T02:35:29;7.38;;;3.08;;
33268;SDS011;19640;50.944;5.260;2023-07-31T02:37:55;8.82;;;4.20;;
33268;SDS011;19640;50.944;5.260;2023-07-31T02:40:20;5.03;;;2.67;;
33268;SDS011;19640;50.944;5.260;2023-07-31T02:42:46;13.88;;;3.85;;
33268;SDS011;19640;50.944;5.260;2023-07-31T02:45:12;6.53;;;3.35;;
33268;SDS011;19640;50.944;5.260;2023-07-31T02:47:38;8.35;;;3.78;;
33268;SDS011;19640;50.944;5.260;2023-07-31T02:50:03;5.20;;;3.20;;
33268;SDS011;19640;50.944;5.260;2023-07-31T02:52:30;8.27;;;4.15;;
33268;SDS011;19640;50.944;5.260;2023-07-31T02:54:55;8.90;;;3.85;;
33268;SDS011;19640;50.944;5.260;2023-07-31T02:57:22;10.02;;;4.10;;
33268;SDS011;19640;50.944;5.260;2023-07-31T02:59:48;7.72;;;3.50;;
33268;SDS011;19640;50.944;5.260;2023-07-31T03:02:13;7.18;;;3.70;;
33268;SDS011;19640;50.944;5.260;2023-07-31T03:04:39;8.02;;;3.17;;
33268;SDS011;19640;50.944;5.260;2023-07-31T03:07:05;10.07;;;3.72;;
33268;SDS011;19640;50.944;5.260;2023-07-31T03:09:31;8.45;;;4.00;;
33268;SDS011;19640;50.944;5.260;2023-07-31T03:11:57;6.38;;;3.33;;
33268;SDS011;19640;50.944;5.260;2023-07-31T03:14:22;6.20;;;3.47;;
33268;SDS011;19640;50.944;5.260;2023-07-31T03:16:48;5.18;;;3.45;;
33268;SDS011;19640;50.944;5.260;2023-07-31T03:19:14;9.52;;;4.00;;
33268;SDS011;19640;50.944;5.260;2023-07-31T03:21:40;10.90;;;4.72;;
33268;SDS011;19640;50.944;5.260;2023-07-31T03:24:06;10.07;;;3.90;;
33268;SDS011;19640;50.944;5.260;2023-07-31T03:26:32;6.32;;;3.78;;
33268;SDS011;19640;50.944;5.260;2023-07-31T03:28:58;9.27;;;3.83;;
33268;SDS011;19640;50.944;5.260;2023-07-31T03:31:24;5.93;;;3.30;;
33268;SDS011;19640;50.944;5.260;2023-07-31T03:33:49;12.23;;;4.07;;
33268;SDS011;19640;50.944;5.260;2023-07-31T03:36:15;8.40;;;4.20;;
33268;SDS011;19640;50.944;5.260;2023-07-31T03:38:40;5.65;;;3.28;;
33268;SDS011;19640;50.944;5.260;2023-07-31T03:41:06;5.25;;;3.90;;
33268;SDS011;19640;50.944;5.260;2023-07-31T03:43:32;7.90;;;3.45;;
33268;SDS011;19640;50.944;5.260;2023-07-31T03:46:01;6.07;;;3.63;;
33268;SDS011;19640;50.944;5.260;2023-07-31T03:48:28;7.07;;;3.58;;
33268;SDS011;19640;50.944;5.260;2023-07-31T03:50:54;6.03;;;3.00;;
33268;SDS011;19640;50.944;5.260;2023-07-31T03:53:19;7.57;;;3.50;;
33268;SDS011;19640;50.944;5.260;2023-07-31T03:55:45;5.47;;;3.55;;
33268;SDS011;19640;50.944;5.260;2023-07-31T03:58:11;6.57;;;3.78;;
33268;SDS011;19640;50.944;5.260;2023-07-31T04:00:37;4.90;;;2.85;;
33268;SDS011;19640;50.944;5.260;2023-07-31T04:03:05;4.38;;;3.22;;
33268;SDS011;19640;50.944;5.260;2023-07-31T04:05:31;8.88;;;3.38;;
33268;SDS011;19640;50.944;5.260;2023-07-31T04:07:57;6.38;;;3.03;;
33268;SDS011;19640;50.944;5.260;2023-07-31T04:10:24;4.95;;;3.58;;
33268;SDS011;19640;50.944;5.260;2023-07-31T04:12:51;16.83;;;3.60;;
33268;SDS011;19640;50.944;5.260;2023-07-31T04:17:45;7.20;;;3.38;;
33268;SDS011;19640;50.944;5.260;2023-07-31T04:20:12;7.25;;;3.45;;
33268;SDS011;19640;50.944;5.260;2023-07-31T04:22:37;6.97;;;3.55;;
33268;SDS011;19640;50.944;5.260;2023-07-31T04:25:03;5.78;;;3.28;;
33268;SDS011;19640;50.944;5.260;2023-07-31T04:27:29;6.57;;;2.88;;
33268;SDS011;19640;50.944;5.260;2023-07-31T04:29:54;4.63;;;2.65;;
33268;SDS011;19640;50.944;5.260;2023-07-31T04:32:20;7.40;;;3.03;;
33268;SDS011;19640;50.944;5.260;2023-07-31T04:34:46;5.43;;;2.88;;
33268;SDS011;19640;50.944;5.260;2023-07-31T04:37:11;4.43;;;3.17;;
33268;SDS011;19640;50.944;5.260;2023-07-31T04:39:37;5.68;;;3.28;;
33268;SDS011;19640;50.944;5.260;2023-07-31T04:42:05;6.35;;;2.75;;
33268;SDS011;19640;50.944;5.260;2023-07-31T04:44:32;7.15;;;2.88;;
33268;SDS011;19640;50.944;5.260;2023-07-31T04:46:58;6.47;;;3.17;;
33268;SDS011;19640;50.944;5.260;2023-07-31T04:49:23;5.53;;;2.67;;
33268;SDS011;19640;50.944;5.260;2023-07-31T04:51:49;6.00;;;2.85;;
33268;SDS011;19640;50.944;5.260;2023-07-31T04:54:15;7.25;;;3.17;;
33268;SDS011;19640;50.944;5.260;2023-07-31T04:56:41;6.53;;;3.10;;
33268;SDS011;19640;50.944;5.260;2023-07-31T04:59:06;3.85;;;2.78;;
33268;SDS011;19640;50.944;5.260;2023-07-31T05:01:34;7.38;;;3.53;;
33268;SDS011;19640;50.944;5.260;2023-07-31T05:04:00;7.15;;;2.92;;
33268;SDS011;19640;50.944;5.260;2023-07-31T05:06:25;4.70;;;3.42;;
33268;SDS011;19640;50.944;5.260;2023-07-31T05:08:51;5.25;;;2.90;;
33268;SDS011;19640;50.944;5.260;2023-07-31T05:11:17;5.97;;;3.35;;
33268;SDS011;19640;50.944;5.260;2023-07-31T05:13:42;7.63;;;3.58;;
33268;SDS011;19640;50.944;5.260;2023-07-31T05:16:08;6.15;;;3.30;;
33268;SDS011;19640;50.944;5.260;2023-07-31T05:18:34;8.57;;;3.40;;
33268;SDS011;19640;50.944;5.260;2023-07-31T05:20:59;6.32;;;3.13;;
33268;SDS011;19640;50.944;5.260;2023-07-31T05:23:25;6.60;;;3.80;;
33268;SDS011;19640;50.944;5.260;2023-07-31T05:25:50;8.10;;;2.63;;
33268;SDS011;19640;50.944;5.260;2023-07-31T05:28:16;6.78;;;3.10;;
33268;SDS011;19640;50.944;5.260;2023-07-31T05:30:43;5.25;;;3.17;;
33268;SDS011;19640;50.944;5.260;2023-07-31T05:33:08;4.97;;;3.10;;
33268;SDS011;19640;50.944;5.260;2023-07-31T05:35:34;5.75;;;2.83;;
33268;SDS011;19640;50.944;5.260;2023-07-31T05:38:00;4.43;;;3.20;;
33268;SDS011;19640;50.944;5.260;2023-07-31T05:40:25;6.90;;;3.03;;
33268;SDS011;19640;50.944;5.260;2023-07-31T05:42:51;6.22;;;3.50;;
33268;SDS011;19640;50.944;5.260;2023-07-31T05:45:17;5.60;;;3.15;;
33268;SDS011;19640;50.944;5.260;2023-07-31T05:47:43;5.75;;;2.83;;
33268;SDS011;19640;50.944;5.260;2023-07-31T05:50:08;8.95;;;4.47;;
33268;SDS011;19640;50.944;5.260;2023-07-31T05:52:34;4.97;;;2.88;;
33268;SDS011;19640;50.944;5.260;2023-07-31T05:55:00;5.47;;;2.90;;
33268;SDS011;19640;50.944;5.260;2023-07-31T05:57:26;3.38;;;2.53;;
33268;SDS011;19640;50.944;5.260;2023-07-31T05:59:52;3.95;;;2.75;;
33268;SDS011;19640;50.944;5.260;2023-07-31T06:02:18;5.03;;;2.85;;
33268;SDS011;19640;50.944;5.260;2023-07-31T06:04:44;5.45;;;3.00;;
33268;SDS011;19640;50.944;5.260;2023-07-31T06:07:09;7.68;;;3.10;;
33268;SDS011;19640;50.944;5.260;2023-07-31T06:09:35;5.95;;;3.25;;
33268;SDS011;19640;50.944;5.260;2023-07-31T06:12:01;6.53;;;3.17;;
33268;SDS011;19640;50.944;5.260;2023-07-31T06:14:27;5.50;;;2.78;;
33268;SDS011;19640;50.944;5.260;2023-07-31T06:16:53;5.13;;;3.50;;
33268;SDS011;19640;50.944;5.260;2023-07-31T06:19:18;4.82;;;2.60;;
33268;SDS011;19640;50.944;5.260;2023-07-31T06:21:45;5.05;;;2.35;;
33268;SDS011;19640;50.944;5.260;2023-07-31T06:24:11;4.50;;;2.60;;
33268;SDS011;19640;50.944;5.260;2023-07-31T06:26:37;5.28;;;2.88;;
33268;SDS011;19640;50.944;5.260;2023-07-31T06:29:03;4.05;;;2.58;;
33268;SDS011;19640;50.944;5.260;2023-07-31T06:31:28;4.40;;;2.67;;
33268;SDS011;19640;50.944;5.260;2023-07-31T06:33:54;6.68;;;2.78;;
33268;SDS011;19640;50.944;5.260;2023-07-31T06:36:20;5.63;;;3.17;;
33268;SDS011;19640;50.944;5.260;2023-07-31T06:38:45;8.25;;;2.97;;
33268;SDS011;19640;50.944;5.260;2023-07-31T06:41:11;5.80;;;3.00;;
33268;SDS011;19640;50.944;5.260;2023-07-31T06:43:37;3.55;;;2.80;;
33268;SDS011;19640;50.944;5.260;2023-07-31T06:46:06;4.72;;;2.67;;
33268;SDS011;19640;50.944;5.260;2023-07-31T06:48:32;4.93;;;2.90;;
33268;SDS011;19640;50.944;5.260;2023-07-31T06:50:59;4.43;;;2.72;;
33268;SDS011;19640;50.944;5.260;2023-07-31T06:53:25;4.47;;;2.70;;
33268;SDS011;19640;50.944;5.260;2023-07-31T06:55:51;5.65;;;2.83;;
33268;SDS011;19640;50.944;5.260;2023-07-31T06:58:17;4.07;;;2.88;;
33268;SDS011;19640;50.944;5.260;2023-07-31T07:00:43;6.40;;;2.92;;
33268;SDS011;19640;50.944;5.260;2023-07-31T07:03:08;7.07;;;3.10;;
33268;SDS011;19640;50.944;5.260;2023-07-31T07:05:34;7.90;;;2.95;;
33268;SDS011;19640;50.944;5.260;2023-07-31T07:08:01;5.93;;;2.53;;
33268;SDS011;19640;50.944;5.260;2023-07-31T07:10:27;4.38;;;2.75;;
33268;SDS011;19640;50.944;5.260;2023-07-31T07:12:52;3.78;;;2.42;;
33268;SDS011;19640;50.944;5.260;2023-07-31T07:15:20;5.55;;;2.83;;
33268;SDS011;19640;50.944;5.260;2023-07-31T07:17:46;5.38;;;2.97;;
33268;SDS011;19640;50.944;5.260;2023-07-31T07:20:12;3.50;;;3.03;;
33268;SDS011;19640;50.944;5.260;2023-07-31T07:22:37;6.40;;;2.80;;
33268;SDS011;19640;50.944;5.260;2023-07-31T07:25:03;4.18;;;2.55;;
33268;SDS011;19640;50.944;5.260;2023-07-31T07:27:29;5.93;;;2.50;;
33268;SDS011;19640;50.944;5.260;2023-07-31T07:29:55;6.25;;;3.00;;
33268;SDS011;19640;50.944;5.260;2023-07-31T07:32:21;4.13;;;3.03;;
33268;SDS011;19640;50.944;5.260;2023-07-31T07:34:47;7.63;;;3.05;;
33268;SDS011;19640;50.944;5.260;2023-07-31T07:37:13;4.35;;;2.55;;
33268;SDS011;19640;50.944;5.260;2023-07-31T07:39:40;5.68;;;2.95;;
33268;SDS011;19640;50.944;5.260;2023-07-31T07:42:07;6.22;;;2.60;;
33268;SDS011;19640;50.944;5.260;2023-07-31T07:44:33;4.07;;;2.45;;
33268;SDS011;19640;50.944;5.260;2023-07-31T07:47:00;4.65;;;2.28;;
33268;SDS011;19640;50.944;5.260;2023-07-31T07:49:26;3.20;;;2.15;;
33268;SDS011;19640;50.944;5.260;2023-07-31T07:51:51;4.15;;;2.60;;
33268;SDS011;19640;50.944;5.260;2023-07-31T07:54:17;3.47;;;2.20;;
33268;SDS011;19640;50.944;5.260;2023-07-31T07:56:44;6.00;;;2.63;;
33268;SDS011;19640;50.944;5.260;2023-07-31T07:59:09;6.55;;;2.53;;
33268;SDS011;19640;50.944;5.260;2023-07-31T08:01:35;4.68;;;1.98;;
33268;SDS011;19640;50.944;5.260;2023-07-31T08:04:01;5.50;;;2.75;;
33268;SDS011;19640;50.944;5.260;2023-07-31T08:06:26;7.03;;;2.40;;
33268;SDS011;19640;50.944;5.260;2023-07-31T08:08:52;3.78;;;2.30;;
33268;SDS011;19640;50.944;5.260;2023-07-31T08:11:19;5.15;;;2.45;;
33268;SDS011;19640;50.944;5.260;2023-07-31T08:13:44;5.35;;;2.17;;
33268;SDS011;19640;50.944;5.260;2023-07-31T08:16:10;5.38;;;2.30;;
33268;SDS011;19640;50.944;5.260;2023-07-31T08:18:36;3.50;;;2.40;;
33268;SDS011;19640;50.944;5.260;2023-07-31T08:21:02;5.68;;;2.47;;
33268;SDS011;19640;50.944;5.260;2023-07-31T08:23:28;5.97;;;2.70;;
33268;SDS011;19640;50.944;5.260;2023-07-31T08:25:53;5.88;;;2.30;;
33268;SDS011;19640;50.944;5.260;2023-07-31T08:28:19;3.13;;;2.13;;
33268;SDS011;19640;50.944;5.260;2023-07-31T08:30:45;3.83;;;2.40;;
33268;SDS011;19640;50.944;5.260;2023-07-31T08:33:10;4.22;;;2.58;;
33268;SDS011;19640;50.944;5.260;2023-07-31T08:35:36;3.72;;;1.98;;
33268;SDS011;19640;50.944;5.260;2023-07-31T08:38:02;5.40;;;2.25;;
33268;SDS011;19640;50.944;5.260;2023-07-31T08:40:28;5.35;;;2.45;;
33268;SDS011;19640;50.944;5.260;2023-07-31T08:42:54;5.03;;;2.53;;
33268;SDS011;19640;50.944;5.260;2023-07-31T08:45:27;5.90;;;2.72;;
33268;SDS011;19640;50.944;5.260;2023-07-31T08:47:53;5.97;;;2.42;;
33268;SDS011;19640;50.944;5.260;2023-07-31T08:50:21;4.60;;;2.70;;
33268;SDS011;19640;50.944;5.260;2023-07-31T08:52:47;4.07;;;2.50;;
33268;SDS011;19640;50.944;5.260;2023-07-31T08:55:14;3.83;;;2.53;;
33268;SDS011;19640;50.944;5.260;2023-07-31T08:57:40;3.92;;;2.33;;
33268;SDS011;19640;50.944;5.260;2023-07-31T09:00:08;5.72;;;3.35;;
33268;SDS011;19640;50.944;5.260;2023-07-31T09:02:39;5.50;;;2.70;;
33268;SDS011;19640;50.944;5.260;2023-07-31T09:05:28;6.05;;;2.55;;
33268;SDS011;19640;50.944;5.260;2023-07-31T09:07:56;7.13;;;2.03;;
33268;SDS011;19640;50.944;5.260;2023-07-31T09:10:22;3.40;;;2.13;;
33268;SDS011;19640;50.944;5.260;2023-07-31T09:12:48;4.97;;;2.30;;
33268;SDS011;19640;50.944;5.260;2023-07-31T09:15:16;3.33;;;2.03;;
33268;SDS011;19640;50.944;5.260;2023-07-31T09:17:42;2.60;;;1.70;;
33268;SDS011;19640;50.944;5.260;2023-07-31T09:22:40;3.40;;;2.13;;
33268;SDS011;19640;50.944;5.260;2023-07-31T09:25:15;3.17;;;1.90;;
33268;SDS011;19640;50.944;5.260;2023-07-31T09:27:45;7.55;;;2.00;;
33268;SDS011;19640;50.944;5.260;2023-07-31T09:30:25;5.75;;;1.83;;
33268;SDS011;19640;50.944;5.260;2023-07-31T09:32:51;3.58;;;1.80;;
33268;SDS011;19640;50.944;5.260;2023-07-31T09:35:31;2.83;;;1.73;;
33268;SDS011;19640;50.944;5.260;2023-07-31T09:38:00;2.13;;;1.40;;
33268;SDS011;19640;50.944;5.260;2023-07-31T09:40:34;2.28;;;1.33;;
33268;SDS011;19640;50.944;5.260;2023-07-31T09:43:02;2.05;;;1.33;;
33268;SDS011;19640;50.944;5.260;2023-07-31T09:45:34;1.48;;;1.00;;
33268;SDS011;19640;50.944;5.260;2023-07-31T09:50:34;2.33;;;1.90;;
33268;SDS011;19640;50.944;5.260;2023-07-31T09:53:05;1.80;;;1.23;;
33268;SDS011;19640;50.944;5.260;2023-07-31T09:55:31;2.03;;;1.42;;
33268;SDS011;19640;50.944;5.260;2023-07-31T09:57:58;2.90;;;1.17;;
33268;SDS011;19640;50.944;5.260;2023-07-31T10:00:24;1.70;;;1.00;;
33268;SDS011;19640;50.944;5.260;2023-07-31T10:02:53;1.67;;;1.13;;
33268;SDS011;19640;50.944;5.260;2023-07-31T10:05:19;1.75;;;1.08;;
33268;SDS011;19640;50.944;5.260;2023-07-31T10:07:54;1.80;;;1.23;;
33268;SDS011;19640;50.944;5.260;2023-07-31T10:10:22;2.08;;;1.15;;
33268;SDS011;19640;50.944;5.260;2023-07-31T10:12:49;3.33;;;1.20;;
33268;SDS011;19640;50.944;5.260;2023-07-31T10:15:15;3.30;;;1.85;;
33268;SDS011;19640;50.944;5.260;2023-07-31T10:17:41;3.38;;;1.38;;
33268;SDS011;19640;50.944;5.260;2023-07-31T10:20:07;2.67;;;1.55;;
33268;SDS011;19640;50.944;5.260;2023-07-31T10:22:34;7.88;;;1.77;;
33268;SDS011;19640;50.944;5.260;2023-07-31T10:25:00;3.70;;;1.80;;
33268;SDS011;19640;50.944;5.260;2023-07-31T10:27:26;2.53;;;1.52;;
33268;SDS011;19640;50.944;5.260;2023-07-31T10:29:52;3.80;;;1.85;;
33268;SDS011;19640;50.944;5.260;2023-07-31T10:32:20;5.53;;;1.98;;
33268;SDS011;19640;50.944;5.260;2023-07-31T10:34:48;3.10;;;1.75;;
33268;SDS011;19640;50.944;5.260;2023-07-31T10:37:25;5.65;;;2.85;;
33268;SDS011;19640;50.944;5.260;2023-07-31T10:42:35;4.72;;;2.28;;
33268;SDS011;19640;50.944;5.260;2023-07-31T10:45:03;4.32;;;2.47;;
33268;SDS011;19640;50.944;5.260;2023-07-31T10:47:39;4.63;;;2.13;;
33268;SDS011;19640;50.944;5.260;2023-07-31T10:50:21;6.47;;;2.60;;
33268;SDS011;19640;50.944;5.260;2023-07-31T10:52:50;8.43;;;3.35;;
33268;SDS011;19640;50.944;5.260;2023-07-31T10:58:05;4.90;;;2.72;;
33268;SDS011;19640;50.944;5.260;2023-07-31T11:00:38;5.32;;;2.97;;
33268;SDS011;19640;50.944;5.260;2023-07-31T11:03:09;5.85;;;3.47;;
33268;SDS011;19640;50.944;5.260;2023-07-31T11:05:49;5.88;;;2.75;;
33268;SDS011;19640;50.944;5.260;2023-07-31T11:08:17;4.95;;;2.70;;
33268;SDS011;19640;50.944;5.260;2023-07-31T11:10:51;6.15;;;2.45;;
33268;SDS011;19640;50.944;5.260;2023-07-31T11:16:05;6.53;;;2.83;;
33268;SDS011;19640;50.944;5.260;2023-07-31T11:18:32;4.72;;;2.80;;
33268;SDS011;19640;50.944;5.260;2023-07-31T11:20:58;6.45;;;3.17;;
33268;SDS011;19640;50.944;5.260;2023-07-31T11:23:23;5.63;;;2.63;;
33268;SDS011;19640;50.944;5.260;2023-07-31T11:25:50;4.65;;;2.90;;
33268;SDS011;19640;50.944;5.260;2023-07-31T11:28:17;5.45;;;2.75;;
33268;SDS011;19640;50.944;5.260;2023-07-31T11:30:44;4.75;;;2.75;;
33268;SDS011;19640;50.944;5.260;2023-07-31T11:33:12;4.55;;;2.47;;
33268;SDS011;19640;50.944;5.260;2023-07-31T11:35:42;5.63;;;2.55;;
33268;SDS011;19640;50.944;5.260;2023-07-31T11:38:24;4.93;;;3.20;;
33268;SDS011;19640;50.944;5.260;2023-07-31T11:40:52;6.78;;;2.58;;
33268;SDS011;19640;50.944;5.260;2023-07-31T11:43:19;7.65;;;3.65;;
33268;SDS011;19640;50.944;5.260;2023-07-31T11:45:49;5.07;;;3.00;;
33268;SDS011;19640;50.944;5.260;2023-07-31T11:50:48;3.90;;;2.22;;
33268;SDS011;19640;50.944;5.260;2023-07-31T11:53:15;3.92;;;2.60;;
33268;SDS011;19640;50.944;5.260;2023-07-31T11:55:44;7.20;;;2.58;;
33268;SDS011;19640;50.944;5.260;2023-07-31T11:58:13;3.67;;;2.70;;
33268;SDS011;19640;50.944;5.260;2023-07-31T12:00:41;7.18;;;2.42;;
33268;SDS011;19640;50.944;5.260;2023-07-31T12:03:08;7.07;;;2.58;;
33268;SDS011;19640;50.944;5.260;2023-07-31T12:05:34;4.78;;;2.58;;
33268;SDS011;19640;50.944;5.260;2023-07-31T12:07:59;4.40;;;2.90;;
33268;SDS011;19640;50.944;5.260;2023-07-31T12:10:29;4.30;;;3.08;;
33268;SDS011;19640;50.944;5.260;2023-07-31T12:13:00;5.07;;;2.67;;
33268;SDS011;19640;50.944;5.260;2023-07-31T12:18:06;3.90;;;2.58;;
33268;SDS011;19640;50.944;5.260;2023-07-31T12:20:44;5.72;;;2.70;;
33268;SDS011;19640;50.944;5.260;2023-07-31T12:23:15;6.22;;;2.80;;
33268;SDS011;19640;50.944;5.260;2023-07-31T12:25:59;6.07;;;2.47;;
33268;SDS011;19640;50.944;5.260;2023-07-31T12:28:46;4.82;;;2.70;;
33268;SDS011;19640;50.944;5.260;2023-07-31T12:33:43;5.35;;;2.30;;
33268;SDS011;19640;50.944;5.260;2023-07-31T12:36:10;3.72;;;2.35;;
33268;SDS011;19640;50.944;5.260;2023-07-31T12:38:37;5.95;;;2.38;;
33268;SDS011;19640;50.944;5.260;2023-07-31T12:41:03;4.72;;;2.40;;
33268;SDS011;19640;50.944;5.260;2023-07-31T12:43:29;5.07;;;2.47;;
33268;SDS011;19640;50.944;5.260;2023-07-31T12:45:55;4.18;;;2.40;;
33268;SDS011;19640;50.944;5.260;2023-07-31T12:48:23;4.28;;;2.40;;
33268;SDS011;19640;50.944;5.260;2023-07-31T12:50:49;3.25;;;2.00;;
33268;SDS011;19640;50.944;5.260;2023-07-31T12:53:15;2.75;;;2.20;;
33268;SDS011;19640;50.944;5.260;2023-07-31T12:55:41;8.38;;;2.72;;
33268;SDS011;19640;50.944;5.260;2023-07-31T12:58:07;4.45;;;2.40;;
33268;SDS011;19640;50.944;5.260;2023-07-31T13:00:32;5.80;;;3.17;;
33268;SDS011;19640;50.944;5.260;2023-07-31T13:02:59;3.63;;;2.10;;
33268;SDS011;19640;50.944;5.260;2023-07-31T13:05:26;4.20;;;2.75;;
33268;SDS011;19640;50.944;5.260;2023-07-31T13:07:52;5.40;;;2.22;;
33268;SDS011;19640;50.944;5.260;2023-07-31T13:10:19;3.03;;;2.38;;
33268;SDS011;19640;50.944;5.260;2023-07-31T13:12:45;5.93;;;3.00;;
33268;SDS011;19640;50.944;5.260;2023-07-31T13:15:11;4.75;;;2.90;;
33268;SDS011;19640;50.944;5.260;2023-07-31T13:17:37;6.90;;;3.05;;
33268;SDS011;19640;50.944;5.260;2023-07-31T13:20:03;4.90;;;3.22;;
33268;SDS011;19640;50.944;5.260;2023-07-31T13:22:31;6.30;;;2.88;;
33268;SDS011;19640;50.944;5.260;2023-07-31T13:24:57;6.13;;;2.85;;
33268;SDS011;19640;50.944;5.260;2023-07-31T13:27:24;6.93;;;4.70;;
33268;SDS011;19640;50.944;5.260;2023-07-31T13:29:51;6.63;;;3.20;;
33268;SDS011;19640;50.944;5.260;2023-07-31T13:32:17;4.03;;;2.55;;
33268;SDS011;19640;50.944;5.260;2023-07-31T13:34:44;4.47;;;3.15;;
33268;SDS011;19640;50.944;5.260;2023-07-31T13:37:11;6.53;;;3.00;;
33268;SDS011;19640;50.944;5.260;2023-07-31T13:39:37;7.40;;;3.30;;
33268;SDS011;19640;50.944;5.260;2023-07-31T13:42:04;4.00;;;2.55;;
33268;SDS011;19640;50.944;5.260;2023-07-31T13:44:36;10.88;;;3.42;;
33268;SDS011;19640;50.944;5.260;2023-07-31T13:47:03;4.57;;;3.35;;
33268;SDS011;19640;50.944;5.260;2023-07-31T13:49:29;5.93;;;2.90;;
33268;SDS011;19640;50.944;5.260;2023-07-31T13:51:55;6.15;;;3.10;;
33268;SDS011;19640;50.944;5.260;2023-07-31T13:54:22;5.28;;;3.13;;
33268;SDS011;19640;50.944;5.260;2023-07-31T13:56:47;6.93;;;3.20;;
33268;SDS011;19640;50.944;5.260;2023-07-31T13:59:14;5.30;;;2.83;;
33268;SDS011;19640;50.944;5.260;2023-07-31T14:01:41;3.65;;;2.50;;
33268;SDS011;19640;50.944;5.260;2023-07-31T14:04:07;5.65;;;3.50;;
33268;SDS011;19640;50.944;5.260;2023-07-31T14:06:33;5.03;;;2.92;;
33268;SDS011;19640;50.944;5.260;2023-07-31T14:08:59;7.63;;;3.35;;
33268;SDS011;19640;50.944;5.260;2023-07-31T14:11:25;4.38;;;2.63;;
33268;SDS011;19640;50.944;5.260;2023-07-31T14:13:51;5.28;;;2.80;;
33268;SDS011;19640;50.944;5.260;2023-07-31T14:16:17;6.07;;;3.20;;
33268;SDS011;19640;50.944;5.260;2023-07-31T14:18:43;6.38;;;3.25;;
33268;SDS011;19640;50.944;5.260;2023-07-31T14:21:10;5.90;;;3.28;;
33268;SDS011;19640;50.944;5.260;2023-07-31T14:23:36;5.20;;;2.55;;
33268;SDS011;19640;50.944;5.260;2023-07-31T14:26:03;7.35;;;3.15;;
33268;SDS011;19640;50.944;5.260;2023-07-31T14:28:28;9.57;;;3.22;;
33268;SDS011;19640;50.944;5.260;2023-07-31T14:30:54;4.28;;;2.80;;
33268;SDS011;19640;50.944;5.260;2023-07-31T14:33:20;5.53;;;2.42;;
33268;SDS011;19640;50.944;5.260;2023-07-31T14:35:46;3.42;;;2.45;;
33268;SDS011;19640;50.944;5.260;2023-07-31T14:38:14;3.97;;;1.85;;
33268;SDS011;19640;50.944;5.260;2023-07-31T14:40:39;3.78;;;1.95;;
33268;SDS011;19640;50.944;5.260;2023-07-31T14:43:07;5.30;;;2.25;;
33268;SDS011;19640;50.944;5.260;2023-07-31T14:45:32;4.88;;;2.55;;
33268;SDS011;19640;50.944;5.260;2023-07-31T14:47:58;4.35;;;2.13;;
33268;SDS011;19640;50.944;5.260;2023-07-31T14:50:24;3.72;;;2.20;;
33268;SDS011;19640;50.944;5.260;2023-07-31T14:52:51;3.50;;;1.85;;
33268;SDS011;19640;50.944;5.260;2023-07-31T14:55:17;3.92;;;1.70;;
33268;SDS011;19640;50.944;5.260;2023-07-31T14:57:44;2.72;;;1.65;;
33268;SDS011;19640;50.944;5.260;2023-07-31T15:00:09;2.50;;;1.73;;
33268;SDS011;19640;50.944;5.260;2023-07-31T15:02:38;3.42;;;1.60;;
33268;SDS011;19640;50.944;5.260;2023-07-31T15:05:05;2.83;;;1.58;;
33268;SDS011;19640;50.944;5.260;2023-07-31T15:07:34;2.65;;;1.42;;
33268;SDS011;19640;50.944;5.260;2023-07-31T15:10:03;1.42;;;1.33;;
33268;SDS011;19640;50.944;5.260;2023-07-31T15:12:29;3.17;;;1.48;;